createdAt,value
2023-03-22T00:00:37.751Z,0.00
2023-03-22T00:01:37.512Z,0.00
2023-03-22T00:02:37.553Z,0.00
2023-03-22T00:03:37.529Z,0.00
2023-03-22T00:04:37.464Z,0.00
2023-03-22T00:05:37.460Z,0.00
2023-03-22T00:06:37.450Z,0.00
2023-03-22T00:07:37.440Z,0.00
2023-03-22T00:08:37.433Z,0.00
2023-03-22T00:09:37.421Z,0.00
2023-03-22T00:10:37.754Z,0.00
2023-03-22T00:11:37.399Z,0.00
2023-03-22T00:12:37.395Z,0.00
2023-03-22T00:13:37.379Z,0.00
2023-03-22T00:14:37.368Z,0.00
2023-03-22T00:15:37.422Z,0.00
2023-03-22T00:16:37.371Z,0.00
2023-03-22T00:17:37.370Z,0.00
2023-03-22T00:18:37.351Z,0.00
2023-03-22T00:19:37.344Z,0.00
2023-03-22T00:20:37.864Z,0.00
2023-03-22T00:21:37.301Z,0.00
2023-03-22T00:22:37.287Z,0.00
2023-03-22T00:23:37.278Z,0.00
2023-03-22T00:24:37.274Z,0.00
2023-03-22T00:25:37.271Z,0.00
2023-03-22T00:26:37.254Z,0.00
2023-03-22T00:27:37.251Z,0.00
2023-03-22T00:28:37.241Z,0.00
2023-03-22T00:29:37.225Z,0.00
2023-03-22T00:30:37.525Z,0.00
2023-03-22T00:31:37.314Z,0.00
2023-03-22T00:32:37.192Z,0.00
2023-03-22T00:33:37.282Z,0.00
2023-03-22T00:34:37.176Z,0.00
2023-03-22T00:35:37.227Z,0.00
2023-03-22T00:36:37.155Z,0.00
2023-03-22T00:37:37.142Z,0.00
2023-03-22T00:38:44.783Z,0.00
2023-03-22T00:39:38.150Z,0.00
2023-03-22T00:40:37.468Z,0.00
2023-03-22T00:41:37.102Z,0.00
2023-03-22T00:42:37.096Z,0.00
2023-03-22T00:43:37.084Z,0.00
2023-03-22T00:44:37.072Z,0.00
2023-03-22T00:45:37.059Z,0.00
2023-03-22T00:46:37.093Z,0.00
2023-03-22T00:47:37.079Z,0.00
2023-03-22T00:48:37.044Z,0.00
2023-03-22T00:49:37.020Z,0.00
2023-03-22T00:50:37.320Z,0.00
2023-03-22T00:51:37.013Z,0.00
2023-03-22T00:52:36.997Z,0.00
2023-03-22T00:53:37.047Z,0.00
2023-03-22T00:54:36.976Z,0.00
2023-03-22T00:55:36.967Z,0.00
2023-03-22T00:56:36.955Z,0.00
2023-03-22T00:57:36.941Z,0.00
2023-03-22T00:58:36.940Z,0.00
2023-03-22T00:59:36.922Z,0.00
2023-03-22T01:00:37.157Z,0.00
2023-03-22T01:01:37.007Z,0.00
2023-03-22T01:02:36.896Z,0.00
2023-03-22T01:03:36.943Z,0.00
2023-03-22T01:04:36.872Z,0.00
2023-03-22T01:05:36.861Z,0.00
2023-03-22T01:06:36.860Z,0.00
2023-03-22T01:07:36.839Z,0.00
2023-03-22T01:08:36.835Z,0.00
2023-03-22T01:09:36.829Z,0.00
2023-03-22T01:10:37.341Z,0.00
2023-03-22T01:11:36.806Z,0.00
2023-03-22T01:12:36.797Z,0.00
2023-03-22T01:13:36.782Z,0.00
2023-03-22T01:14:36.769Z,0.00
2023-03-22T01:15:36.760Z,0.00
2023-03-22T01:16:36.768Z,0.00
2023-03-22T01:17:36.749Z,0.00
2023-03-22T01:18:36.727Z,0.00
2023-03-22T01:19:36.749Z,0.00
2023-03-22T01:20:36.798Z,0.00
2023-03-22T01:21:36.709Z,0.00
2023-03-22T01:22:36.686Z,0.00
2023-03-22T01:23:36.682Z,0.00
2023-03-22T01:24:36.674Z,0.00
2023-03-22T01:25:36.659Z,0.00
2023-03-22T01:26:36.661Z,0.00
2023-03-22T01:27:36.634Z,0.00
2023-03-22T01:28:36.634Z,0.00
2023-03-22T01:29:36.627Z,0.00
2023-03-22T01:30:36.751Z,0.00
2023-03-22T01:31:36.596Z,0.00
2023-03-22T01:32:36.587Z,0.00
2023-03-22T01:33:36.579Z,0.00
2023-03-22T01:34:36.567Z,0.00
2023-03-22T01:35:36.661Z,0.00
2023-03-22T01:36:36.549Z,0.00
2023-03-22T01:37:36.546Z,0.00
2023-03-22T01:38:36.537Z,0.00
2023-03-22T01:39:36.522Z,0.00
2023-03-22T01:40:36.515Z,0.00
2023-03-22T01:41:36.503Z,0.00
2023-03-22T01:42:36.494Z,0.00
2023-03-22T01:43:36.484Z,0.00
2023-03-22T01:44:36.474Z,0.00
2023-03-22T01:45:36.477Z,0.00
2023-03-22T01:46:36.514Z,0.00
2023-03-22T01:47:36.446Z,0.00
2023-03-22T01:48:36.457Z,0.00
2023-03-22T01:49:36.420Z,0.00
2023-03-22T01:50:36.421Z,0.00
2023-03-22T01:51:36.437Z,0.00
2023-03-22T01:52:36.417Z,0.00
2023-03-22T01:53:36.383Z,0.00
2023-03-22T01:54:36.370Z,0.00
2023-03-22T01:55:36.359Z,0.00
2023-03-22T01:56:36.350Z,0.00
2023-03-22T01:57:36.347Z,0.00
2023-03-22T01:58:36.350Z,0.00
2023-03-22T01:59:36.323Z,0.00
2023-03-22T02:00:36.705Z,0.00
2023-03-22T02:01:36.367Z,0.00
2023-03-22T02:02:36.367Z,0.00
2023-03-22T02:03:36.838Z,0.00
2023-03-22T02:04:36.272Z,0.00
2023-03-22T02:05:36.264Z,0.00
2023-03-22T02:06:36.249Z,0.00
2023-03-22T02:07:36.268Z,0.00
2023-03-22T02:08:36.227Z,0.00
2023-03-22T02:09:36.615Z,0.00
2023-03-22T02:10:36.233Z,0.00
2023-03-22T02:11:36.207Z,0.00
2023-03-22T02:12:36.188Z,0.00
2023-03-22T02:13:36.174Z,0.00
2023-03-22T02:14:36.168Z,0.00
2023-03-22T02:15:36.215Z,0.00
2023-03-22T02:16:36.151Z,0.00
2023-03-22T02:17:36.156Z,0.00
2023-03-22T02:18:36.125Z,0.00
2023-03-22T02:19:36.119Z,0.00
2023-03-22T02:20:36.106Z,0.00
2023-03-22T02:21:36.096Z,0.00
2023-03-22T02:22:36.081Z,0.00
2023-03-22T02:23:36.099Z,0.00
2023-03-22T02:24:36.064Z,0.00
2023-03-22T02:25:36.077Z,0.00
2023-03-22T02:26:36.044Z,0.00
2023-03-22T02:27:36.160Z,0.00
2023-03-22T02:28:36.022Z,0.00
2023-03-22T02:29:36.028Z,0.00
2023-03-22T02:30:36.134Z,0.00
2023-03-22T02:31:36.094Z,0.00
2023-03-22T02:32:36.003Z,0.00
2023-03-22T02:33:35.973Z,0.00
2023-03-22T02:34:35.961Z,0.00
2023-03-22T02:35:35.979Z,0.00
2023-03-22T02:36:35.941Z,0.00
2023-03-22T02:37:35.925Z,0.00
2023-03-22T02:38:35.917Z,0.00
2023-03-22T02:39:35.937Z,0.00
2023-03-22T02:40:35.956Z,0.00
2023-03-22T02:41:35.891Z,0.00
2023-03-22T02:42:35.879Z,0.00
2023-03-22T02:43:35.865Z,0.00
2023-03-22T02:44:35.860Z,0.00
2023-03-22T02:45:35.851Z,0.00
2023-03-22T02:46:35.900Z,0.00
2023-03-22T02:47:35.829Z,0.00
2023-03-22T02:48:35.818Z,0.00
2023-03-22T02:49:35.823Z,0.00
2023-03-22T02:50:35.807Z,0.00
2023-03-22T02:51:35.805Z,0.00
2023-03-22T02:52:35.775Z,0.00
2023-03-22T02:53:35.767Z,0.00
2023-03-22T02:54:35.757Z,0.00
2023-03-22T02:55:35.777Z,0.00
2023-03-22T02:56:35.738Z,0.00
2023-03-22T02:57:35.731Z,0.00
2023-03-22T02:58:35.716Z,0.00
2023-03-22T02:59:35.703Z,0.00
2023-03-22T03:00:35.730Z,0.00
2023-03-22T03:01:35.758Z,0.00
2023-03-22T03:02:35.671Z,0.00
2023-03-22T03:03:35.665Z,0.00
2023-03-22T03:04:35.652Z,0.00
2023-03-22T03:05:35.645Z,0.00
2023-03-22T03:06:35.636Z,0.00
2023-03-22T03:07:35.622Z,0.00
2023-03-22T03:08:35.610Z,0.00
2023-03-22T03:09:35.602Z,0.00
2023-03-22T03:10:35.591Z,0.00
2023-03-22T03:11:35.601Z,0.00
2023-03-22T03:12:35.568Z,0.00
2023-03-22T03:13:35.564Z,0.00
2023-03-22T03:14:35.553Z,0.00
2023-03-22T03:15:35.544Z,0.00
2023-03-22T03:16:35.601Z,0.00
2023-03-22T03:17:35.520Z,0.00
2023-03-22T03:18:35.511Z,0.00
2023-03-22T03:19:35.498Z,0.00
2023-03-22T03:20:35.499Z,0.00
2023-03-22T03:21:35.483Z,0.00
2023-03-22T03:22:35.468Z,0.00
2023-03-22T03:23:35.463Z,0.00
2023-03-22T03:24:35.452Z,0.00
2023-03-22T03:25:35.436Z,0.00
2023-03-22T03:26:35.428Z,0.00
2023-03-22T03:27:35.440Z,0.00
2023-03-22T03:28:35.409Z,0.00
2023-03-22T03:29:35.399Z,0.00
2023-03-22T03:30:35.391Z,0.00
2023-03-22T03:31:35.437Z,0.00
2023-03-22T03:32:35.371Z,0.00
2023-03-22T03:33:35.356Z,0.00
2023-03-22T03:34:35.342Z,0.00
2023-03-22T03:35:35.392Z,0.00
2023-03-22T03:36:35.332Z,0.00
2023-03-22T03:37:35.314Z,0.00
2023-03-22T03:38:35.305Z,0.00
2023-03-22T03:39:35.312Z,0.00
2023-03-22T03:40:35.282Z,0.00
2023-03-22T03:41:35.277Z,0.00
2023-03-22T03:42:35.261Z,0.00
2023-03-22T03:43:35.278Z,0.00
2023-03-22T03:44:35.241Z,0.00
2023-03-22T03:45:35.312Z,0.00
2023-03-22T03:46:35.226Z,0.00
2023-03-22T03:47:35.208Z,0.00
2023-03-22T03:48:35.207Z,0.00
2023-03-22T03:49:35.230Z,0.00
2023-03-22T03:50:35.178Z,0.00
2023-03-22T03:51:35.180Z,0.00
2023-03-22T03:52:35.162Z,0.00
2023-03-22T03:53:35.149Z,0.00
2023-03-22T03:54:35.145Z,0.00
2023-03-22T03:55:35.134Z,0.00
2023-03-22T03:56:35.129Z,0.00
2023-03-22T03:57:35.120Z,0.00
2023-03-22T03:58:35.103Z,0.00
2023-03-22T03:59:35.120Z,0.00
2023-03-22T04:00:35.080Z,0.00
2023-03-22T04:01:35.071Z,0.00
2023-03-22T04:02:35.114Z,0.00
2023-03-22T04:03:35.046Z,0.00
2023-03-22T04:04:35.123Z,0.00
2023-03-22T04:05:35.026Z,0.00
2023-03-22T04:06:35.020Z,0.00
2023-03-22T04:07:35.005Z,0.00
2023-03-22T04:08:34.995Z,0.00
2023-03-22T04:09:34.988Z,0.00
2023-03-22T04:10:34.976Z,0.00
2023-03-22T04:11:34.965Z,0.00
2023-03-22T04:12:34.955Z,0.00
2023-03-22T04:13:34.946Z,0.00
2023-03-22T04:14:34.935Z,0.00
2023-03-22T04:15:34.946Z,0.00
2023-03-22T04:16:35.024Z,0.00
2023-03-22T04:17:34.912Z,0.00
2023-03-22T04:18:34.900Z,0.00
2023-03-22T04:19:34.880Z,0.00
2023-03-22T04:20:34.878Z,0.00
2023-03-22T04:21:34.864Z,0.00
2023-03-22T04:22:34.881Z,0.00
2023-03-22T04:23:34.840Z,0.00
2023-03-22T04:24:34.834Z,0.00
2023-03-22T04:25:34.823Z,0.00
2023-03-22T04:26:34.816Z,0.00
2023-03-22T04:27:34.808Z,0.00
2023-03-22T04:28:34.788Z,0.00
2023-03-22T04:29:34.784Z,0.00
2023-03-22T04:30:34.893Z,0.00
2023-03-22T04:31:34.786Z,0.00
2023-03-22T04:32:34.762Z,0.00
2023-03-22T04:33:34.742Z,0.00
2023-03-22T04:34:34.728Z,0.00
2023-03-22T04:35:34.776Z,0.00
2023-03-22T04:36:34.706Z,0.00
2023-03-22T04:37:34.698Z,0.00
2023-03-22T04:38:34.693Z,0.00
2023-03-22T04:39:34.673Z,0.00
2023-03-22T04:40:34.668Z,0.00
2023-03-22T04:41:34.652Z,0.00
2023-03-22T04:42:34.643Z,0.00
2023-03-22T04:43:34.641Z,0.00
2023-03-22T04:44:34.629Z,0.00
2023-03-22T04:45:34.612Z,0.00
2023-03-22T04:46:34.683Z,0.00
2023-03-22T04:47:34.621Z,0.00
2023-03-22T04:48:34.585Z,1.00
2023-03-22T04:49:34.570Z,1.00
2023-03-22T04:50:34.563Z,1.00
2023-03-22T04:51:34.556Z,1.00
2023-03-22T04:52:34.741Z,1.00
2023-03-22T04:53:34.531Z,0.00
2023-03-22T04:54:34.520Z,0.00
2023-03-22T04:55:34.514Z,0.00
2023-03-22T04:56:34.529Z,2.00
2023-03-22T04:57:34.640Z,2.00
2023-03-22T04:58:34.480Z,4.00
2023-03-22T04:59:34.471Z,0.00
2023-03-22T05:00:34.461Z,4.00
2023-03-22T05:01:34.498Z,2.00
2023-03-22T05:02:34.601Z,6.00
2023-03-22T05:03:34.455Z,5.00
2023-03-22T05:04:34.419Z,9.00
2023-03-22T05:05:34.430Z,11.00
2023-03-22T05:06:34.399Z,18.00
2023-03-22T05:07:34.391Z,18.00
2023-03-22T05:08:34.378Z,25.00
2023-03-22T05:09:34.369Z,23.00
2023-03-22T05:10:34.358Z,36.00
2023-03-22T05:11:34.346Z,37.00
2023-03-22T05:12:34.335Z,44.00
2023-03-22T05:13:34.342Z,58.00
2023-03-22T05:14:34.399Z,54.00
2023-03-22T05:15:34.322Z,70.00
2023-03-22T05:16:34.294Z,78.00
2023-03-22T05:17:34.289Z,98.00
2023-03-22T05:18:34.273Z,114.00
2023-03-22T05:19:34.293Z,123.00
2023-03-22T05:20:34.264Z,150.00
2023-03-22T05:21:34.243Z,156.00
2023-03-22T05:22:34.234Z,203.00
2023-03-22T05:23:34.316Z,218.00
2023-03-22T05:24:34.215Z,238.00
2023-03-22T05:25:34.205Z,276.00
2023-03-22T05:26:34.205Z,305.00
2023-03-22T05:27:34.182Z,337.00
2023-03-22T05:28:34.176Z,381.00
2023-03-22T05:29:34.158Z,402.00
2023-03-22T05:30:34.152Z,443.00
2023-03-22T05:31:34.199Z,481.00
2023-03-22T05:32:34.129Z,536.00
2023-03-22T05:33:34.120Z,576.00
2023-03-22T05:34:34.111Z,628.00
2023-03-22T05:35:34.186Z,667.00
2023-03-22T05:36:34.091Z,713.00
2023-03-22T05:37:34.093Z,761.00
2023-03-22T05:38:34.070Z,805.00
2023-03-22T05:39:34.068Z,855.00
2023-03-22T05:40:34.053Z,902.00
2023-03-22T05:41:36.348Z,956.00
2023-03-22T05:42:34.033Z,999.00
2023-03-22T05:43:34.022Z,1066.00
2023-03-22T05:44:34.013Z,1099.00
2023-03-22T05:45:33.998Z,1168.00
2023-03-22T05:46:34.062Z,1226.00
2023-03-22T05:47:33.982Z,1277.00
2023-03-22T05:48:33.971Z,1333.00
2023-03-22T05:49:33.961Z,1395.00
2023-03-22T05:50:33.951Z,1456.00
2023-03-22T05:51:33.968Z,1514.00
2023-03-22T05:52:33.932Z,1570.00
2023-03-22T05:53:33.919Z,1627.00
2023-03-22T05:54:33.920Z,1696.00
2023-03-22T05:55:33.903Z,1745.00
2023-03-22T05:56:33.892Z,1816.00
2023-03-22T05:57:33.878Z,1867.00
2023-03-22T05:58:33.885Z,1936.00
2023-03-22T05:59:33.871Z,1991.00
2023-03-22T06:00:33.850Z,2064.00
2023-03-22T06:01:33.888Z,2119.00
2023-03-22T06:02:33.827Z,2188.00
2023-03-22T06:03:33.887Z,2249.00
2023-03-22T06:04:33.812Z,2313.00
2023-03-22T06:05:33.798Z,2372.00
2023-03-22T06:06:33.790Z,2446.00
2023-03-22T06:07:33.816Z,2513.00
2023-03-22T06:08:33.767Z,2576.00
2023-03-22T06:09:33.765Z,2634.00
2023-03-22T06:10:33.752Z,2708.00
2023-03-22T06:11:33.742Z,2772.00
2023-03-22T06:12:33.737Z,2838.00
2023-03-22T06:13:33.725Z,2908.00
2023-03-22T06:14:33.708Z,2980.00
2023-03-22T06:15:33.698Z,3037.00
2023-03-22T06:16:33.842Z,3111.00
2023-03-22T06:17:33.680Z,3179.00
2023-03-22T06:18:33.685Z,3247.00
2023-03-22T06:19:33.739Z,3321.00
2023-03-22T06:20:33.653Z,3395.00
2023-03-22T06:21:33.637Z,3455.00
2023-03-22T06:22:33.628Z,3546.00
2023-03-22T06:23:33.651Z,3619.00
2023-03-22T06:24:33.612Z,3696.00
2023-03-22T06:25:33.607Z,3769.00
2023-03-22T06:26:33.592Z,3842.00
2023-03-22T06:27:33.579Z,3915.00
2023-03-22T06:28:33.576Z,3996.00
2023-03-22T06:29:33.556Z,4072.00
2023-03-22T06:30:33.558Z,4146.00
2023-03-22T06:31:33.538Z,4225.00
2023-03-22T06:32:33.523Z,4302.00
2023-03-22T06:33:33.515Z,4372.00
2023-03-22T06:34:33.561Z,4457.00
2023-03-22T06:35:33.531Z,4502.00
2023-03-22T06:36:33.481Z,4581.00
2023-03-22T06:37:33.481Z,4655.00
2023-03-22T06:38:33.464Z,4722.00
2023-03-22T06:39:33.489Z,4816.00
2023-03-22T06:40:33.439Z,4876.00
2023-03-22T06:41:33.428Z,4943.00
2023-03-22T06:42:33.417Z,5031.00
2023-03-22T06:43:33.410Z,5097.00
2023-03-22T06:44:33.400Z,5174.00
2023-03-22T06:45:33.438Z,5279.00
2023-03-22T06:46:33.381Z,5331.00
2023-03-22T06:47:33.362Z,5434.00
2023-03-22T06:48:33.352Z,5464.00
2023-03-22T06:49:33.342Z,5526.00
2023-03-22T06:50:33.331Z,5580.00
2023-03-22T06:51:33.325Z,5650.00
2023-03-22T06:52:33.314Z,5716.00
2023-03-22T06:53:33.303Z,5777.00
2023-03-22T06:54:33.291Z,5845.00
2023-03-22T06:55:33.338Z,5921.00
2023-03-22T06:56:33.268Z,5986.00
2023-03-22T06:57:33.255Z,6055.00
2023-03-22T06:58:33.244Z,6111.00
2023-03-22T06:59:33.244Z,6192.00
2023-03-22T07:00:33.228Z,6278.00
2023-03-22T07:01:33.296Z,6575.00
2023-03-22T07:02:33.208Z,6879.00
2023-03-22T07:03:33.197Z,6920.00
2023-03-22T07:04:33.331Z,6939.00
2023-03-22T07:05:33.184Z,6987.00
2023-03-22T07:06:33.165Z,6982.00
2023-03-22T07:07:33.154Z,6960.00
2023-03-22T07:08:33.147Z,7033.00
2023-03-22T07:09:33.140Z,7189.00
2023-03-22T07:10:33.129Z,7410.00
2023-03-22T07:11:33.143Z,7365.00
2023-03-22T07:12:33.105Z,7446.00
2023-03-22T07:13:33.097Z,7693.00
2023-03-22T07:14:33.085Z,7995.00
2023-03-22T07:15:33.250Z,8053.00
2023-03-22T07:16:33.124Z,8052.00
2023-03-22T07:17:33.056Z,8177.00
2023-03-22T07:18:33.044Z,8259.00
2023-03-22T07:19:33.032Z,8096.00
2023-03-22T07:20:33.025Z,8307.00
2023-03-22T07:21:33.016Z,8367.00
2023-03-22T07:22:33.110Z,8598.00
2023-03-22T07:23:32.994Z,8747.00
2023-03-22T07:24:32.982Z,8859.00
2023-03-22T07:25:32.972Z,8839.00
2023-03-22T07:26:32.965Z,8951.00
2023-03-22T07:27:32.987Z,9041.00
2023-03-22T07:28:32.946Z,9155.00
2023-03-22T07:29:32.932Z,9314.00
2023-03-22T07:30:32.925Z,9279.00
2023-03-22T07:31:32.915Z,9496.00
2023-03-22T07:32:32.943Z,9761.00
2023-03-22T07:33:32.897Z,9836.00
2023-03-22T07:34:32.883Z,9783.00
2023-03-22T07:35:32.928Z,9717.00
2023-03-22T07:36:32.882Z,9699.00
2023-03-22T07:37:32.855Z,9609.00
2023-03-22T07:38:32.847Z,9737.00
2023-03-22T07:39:32.843Z,10124.00
2023-03-22T07:40:32.820Z,10121.00
2023-03-22T07:41:32.814Z,10059.00
2023-03-22T07:42:32.803Z,10074.00
2023-03-22T07:43:37.124Z,10185.00
2023-03-22T07:44:33.803Z,10271.00
2023-03-22T07:45:32.815Z,10355.00
2023-03-22T07:46:32.816Z,10461.00
2023-03-22T07:47:40.862Z,10536.00
2023-03-22T07:48:33.824Z,10549.00
2023-03-22T07:49:32.743Z,10684.00
2023-03-22T07:50:32.819Z,10616.00
2023-03-22T07:51:32.722Z,10625.00
2023-03-22T07:52:32.702Z,10665.00
2023-03-22T07:53:32.700Z,10859.00
2023-03-22T07:54:34.365Z,11036.00
2023-03-22T07:55:32.671Z,11036.00
2023-03-22T07:56:32.679Z,11011.00
2023-03-22T07:57:32.657Z,11044.00
2023-03-22T07:58:32.751Z,11135.00
2023-03-22T07:59:32.662Z,11289.00
2023-03-22T08:00:32.624Z,11283.00
2023-03-22T08:01:32.767Z,11320.00
2023-03-22T08:02:32.603Z,11413.00
2023-03-22T08:03:32.680Z,11575.00
2023-03-22T08:04:32.585Z,11651.00
2023-03-22T08:05:32.571Z,11683.00
2023-03-22T08:06:32.570Z,11758.00
2023-03-22T08:07:32.808Z,11834.00
2023-03-22T08:08:32.545Z,11908.00
2023-03-22T08:09:32.537Z,11954.00
2023-03-22T08:10:32.573Z,12038.00
2023-03-22T08:11:32.523Z,12157.00
2023-03-22T08:12:32.587Z,12252.00
2023-03-22T08:13:32.493Z,12356.00
2023-03-22T08:14:36.652Z,12426.00
2023-03-22T08:15:32.505Z,12519.00
2023-03-22T08:16:32.574Z,12620.00
2023-03-22T08:17:32.453Z,12736.00
2023-03-22T08:18:32.464Z,12870.00
2023-03-22T08:19:32.438Z,13019.00
2023-03-22T08:20:32.592Z,13154.00
2023-03-22T08:21:32.423Z,13342.00
2023-03-22T08:22:32.411Z,13401.00
2023-03-22T08:23:41.500Z,13418.00
2023-03-22T08:24:33.393Z,13418.00
2023-03-22T08:25:32.366Z,13455.00
2023-03-22T08:26:32.358Z,13553.00
2023-03-22T08:27:32.349Z,13623.00
2023-03-22T08:28:32.344Z,13711.00
2023-03-22T08:29:32.331Z,13909.00
2023-03-22T08:30:32.320Z,13910.00
2023-03-22T08:31:32.397Z,14040.00
2023-03-22T08:32:32.300Z,14167.00
2023-03-22T08:33:32.288Z,14276.00
2023-03-22T08:34:32.279Z,14349.00
2023-03-22T08:35:32.426Z,14417.00
2023-03-22T08:36:32.262Z,14501.00
2023-03-22T08:37:32.251Z,14623.00
2023-03-22T08:38:32.251Z,14835.00
2023-03-22T08:39:32.226Z,14822.00
2023-03-22T08:40:32.249Z,14916.00
2023-03-22T08:41:32.214Z,15041.00
2023-03-22T08:42:32.199Z,15108.00
2023-03-22T08:43:32.188Z,15173.00
2023-03-22T08:44:32.193Z,15296.00
2023-03-22T08:45:32.172Z,15403.00
2023-03-22T08:46:32.224Z,15504.00
2023-03-22T08:47:32.172Z,15592.00
2023-03-22T08:48:32.140Z,15687.00
2023-03-22T08:49:32.128Z,15874.00
2023-03-22T08:50:32.117Z,15905.00
2023-03-22T08:51:32.105Z,16028.00
2023-03-22T08:52:32.094Z,16228.00
2023-03-22T08:53:32.082Z,16460.00
2023-03-22T08:54:32.073Z,16604.00
2023-03-22T08:55:32.063Z,16609.00
2023-03-22T08:56:32.054Z,16587.00
2023-03-22T08:57:32.044Z,16649.00
2023-03-22T08:58:32.034Z,16785.00
2023-03-22T08:59:32.028Z,16945.00
2023-03-22T09:00:47.370Z,17070.00
2023-03-22T09:01:33.161Z,17226.00
2023-03-22T09:02:31.992Z,17405.00
2023-03-22T09:03:32.015Z,17535.00
2023-03-22T09:04:32.061Z,17619.00
2023-03-22T09:05:31.967Z,17807.00
2023-03-22T09:06:31.959Z,17991.00
2023-03-22T09:07:31.944Z,18310.00
2023-03-22T09:08:31.938Z,19051.00
2023-03-22T09:09:31.932Z,19781.00
2023-03-22T09:10:31.918Z,19788.00
2023-03-22T09:11:31.907Z,19431.00
2023-03-22T09:12:31.891Z,20135.00
2023-03-22T09:13:31.891Z,20841.00
2023-03-22T09:14:31.889Z,21759.00
2023-03-22T09:15:31.867Z,22367.00
2023-03-22T09:16:31.935Z,23754.00
2023-03-22T09:17:31.843Z,26252.00
2023-03-22T09:18:31.840Z,26824.00
2023-03-22T09:19:31.848Z,27467.00
2023-03-22T09:20:31.820Z,27681.00
2023-03-22T09:21:31.812Z,26114.00
2023-03-22T09:22:31.801Z,26204.00
2023-03-22T09:23:31.786Z,26884.00
2023-03-22T09:24:31.777Z,26706.00
2023-03-22T09:25:31.776Z,26632.00
2023-03-22T09:26:31.771Z,25395.00
2023-03-22T09:27:31.750Z,24334.00
2023-03-22T09:28:31.831Z,24139.00
2023-03-22T09:29:31.758Z,24176.00
2023-03-22T09:30:31.721Z,24505.00
2023-03-22T09:31:31.795Z,23824.00
2023-03-22T09:32:31.694Z,23129.00
2023-03-22T09:33:31.689Z,22936.00
2023-03-22T09:34:31.677Z,23207.00
2023-03-22T09:35:31.759Z,23898.00
2023-03-22T09:36:31.657Z,24330.00
2023-03-22T09:37:31.646Z,24565.00
2023-03-22T09:38:31.640Z,24362.00
2023-03-22T09:39:31.650Z,24481.00
2023-03-22T09:40:31.625Z,24540.00
2023-03-22T09:41:31.606Z,24914.00
2023-03-22T09:42:31.597Z,25491.00
2023-03-22T09:43:33.166Z,26184.00
2023-03-22T09:44:31.578Z,26892.00
2023-03-22T09:45:31.568Z,27683.00
2023-03-22T09:46:31.640Z,27210.00
2023-03-22T09:47:43.941Z,26026.00
2023-03-22T09:48:32.669Z,26084.00
2023-03-22T09:49:38.449Z,26483.00
2023-03-22T09:50:32.546Z,26099.00
2023-03-22T09:51:31.540Z,26027.00
2023-03-22T09:52:31.634Z,26173.00
2023-03-22T09:53:31.493Z,26419.00
2023-03-22T09:54:31.491Z,26896.00
2023-03-22T09:55:31.468Z,27539.00
2023-03-22T09:56:31.467Z,27770.00
2023-03-22T09:57:31.450Z,28003.00
2023-03-22T09:58:31.553Z,29031.00
2023-03-22T09:59:31.431Z,30002.00
2023-03-22T10:00:31.603Z,29669.00
2023-03-22T10:01:31.635Z,29283.00
2023-03-22T10:02:31.512Z,29216.00
2023-03-22T10:03:31.393Z,30053.00
2023-03-22T10:04:31.561Z,30598.00
2023-03-22T10:05:31.388Z,30503.00
2023-03-22T10:06:31.374Z,29803.00
2023-03-22T10:07:31.460Z,29878.00
2023-03-22T10:08:31.349Z,31438.00
2023-03-22T10:09:31.338Z,33761.00
2023-03-22T10:10:31.326Z,33843.00
2023-03-22T10:11:31.323Z,34035.00
2023-03-22T10:12:31.308Z,36859.00
2023-03-22T10:13:31.301Z,44836.00
2023-03-22T10:14:31.289Z,44174.00
2023-03-22T10:15:31.280Z,43190.00
2023-03-22T10:16:31.466Z,45251.00
2023-03-22T10:17:31.269Z,44130.00
2023-03-22T10:18:31.276Z,46040.00
2023-03-22T10:19:31.257Z,45265.00
2023-03-22T10:20:31.234Z,44753.00
2023-03-22T10:21:31.218Z,43921.00
2023-03-22T10:22:31.229Z,41015.00
2023-03-22T10:23:31.227Z,40408.00
2023-03-22T10:24:31.218Z,40689.00
2023-03-22T10:25:31.180Z,40504.00
2023-03-22T10:26:31.374Z,41623.00
2023-03-22T10:27:31.161Z,41782.00
2023-03-22T10:28:31.149Z,44694.00
2023-03-22T10:29:31.137Z,44346.00
2023-03-22T10:30:31.133Z,44242.00
2023-03-22T10:31:31.205Z,42353.00
2023-03-22T10:32:31.113Z,43681.00
2023-03-22T10:33:31.102Z,44040.00
2023-03-22T10:34:31.136Z,41823.00
2023-03-22T10:35:31.097Z,41373.00
2023-03-22T10:36:31.077Z,40821.00
2023-03-22T10:37:31.065Z,42133.00
2023-03-22T10:38:31.049Z,41385.00
2023-03-22T10:39:31.072Z,40785.00
2023-03-22T10:40:31.034Z,40262.00
2023-03-22T10:41:31.031Z,42141.00
2023-03-22T10:42:31.013Z,42237.00
2023-03-22T10:43:31.009Z,43156.00
2023-03-22T10:44:30.991Z,45677.00
2023-03-22T10:45:30.986Z,44208.00
2023-03-22T10:46:31.045Z,43724.00
2023-03-22T10:47:30.970Z,45653.00
2023-03-22T10:48:31.023Z,44510.00
2023-03-22T10:49:30.947Z,44211.00
2023-03-22T10:50:30.950Z,44834.00
2023-03-22T10:51:30.933Z,45681.00
2023-03-22T10:52:30.937Z,45035.00
2023-03-22T10:53:30.924Z,46581.00
2023-03-22T10:54:30.902Z,44983.00
2023-03-22T10:55:30.926Z,44817.00
2023-03-22T10:56:30.894Z,46258.00
2023-03-22T10:57:30.883Z,44952.00
2023-03-22T10:58:30.874Z,48414.00
2023-03-22T10:59:30.861Z,49274.00
2023-03-22T11:00:30.858Z,48463.00
2023-03-22T11:01:30.955Z,48612.00
2023-03-22T11:02:31.072Z,49502.00
2023-03-22T11:03:30.959Z,49411.00
2023-03-22T11:04:30.811Z,48500.00
2023-03-22T11:05:30.822Z,52745.00
2023-03-22T11:06:30.792Z,50553.00
2023-03-22T11:07:30.792Z,52135.00
2023-03-22T11:08:30.777Z,52726.00
2023-03-22T11:09:30.773Z,52940.00
2023-03-22T11:10:30.775Z,52478.00
2023-03-22T11:11:30.810Z,52655.00
2023-03-22T11:12:30.745Z,51083.00
2023-03-22T11:13:30.751Z,48701.00
2023-03-22T11:14:30.731Z,51278.00
2023-03-22T11:15:30.724Z,53187.00
2023-03-22T11:16:30.808Z,54399.00
2023-03-22T11:17:30.694Z,56246.00
2023-03-22T11:18:30.684Z,53053.00
2023-03-22T11:19:30.670Z,56181.00
2023-03-22T11:20:31.302Z,53005.00
2023-03-22T11:21:30.653Z,54534.00
2023-03-22T11:22:30.648Z,55006.00
2023-03-22T11:23:30.671Z,55524.00
2023-03-22T11:24:30.625Z,52625.00
2023-03-22T11:25:30.631Z,51193.00
2023-03-22T11:26:30.623Z,54033.00
2023-03-22T11:27:30.630Z,48658.00
2023-03-22T11:28:30.593Z,51290.00
2023-03-22T11:29:30.589Z,53827.00
2023-03-22T11:30:30.580Z,54350.00
2023-03-22T11:31:30.609Z,53213.00
2023-03-22T11:32:30.645Z,55728.00
2023-03-22T11:34:30.535Z,50505.00
2023-03-22T11:35:30.662Z,50903.00
2023-03-22T11:36:30.517Z,54182.00
2023-03-22T11:37:30.521Z,53910.00
2023-03-22T11:38:30.504Z,52801.00
2023-03-22T11:42:00.140Z,51423.00
2023-03-22T11:42:01.840Z,51260.00
2023-03-22T11:43:01.591Z,45196.00
2023-03-22T11:44:01.563Z,54986.00
2023-03-22T11:46:41.366Z,52041.00
2023-03-22T11:46:42.865Z,52424.00
2023-03-22T11:49:11.163Z,49783.00
2023-03-22T11:49:12.639Z,49548.00
2023-03-22T11:51:57.272Z,53064.00
2023-03-22T11:51:58.692Z,52970.00
2023-03-22T11:52:58.726Z,50790.00
2023-03-22T15:34:46.421Z,31124.00
2023-03-22T15:34:47.853Z,30974.00
2023-03-22T15:35:47.878Z,33365.00
2023-03-22T15:37:06.225Z,32031.00
2023-03-22T15:37:47.828Z,28621.00
2023-03-22T15:38:47.823Z,26258.00
2023-03-22T15:39:47.810Z,26967.00
2023-03-22T15:44:41.132Z,31204.00
2023-03-22T15:44:42.555Z,30881.00
2023-03-22T16:06:09.205Z,26036.00
2023-03-22T16:06:10.618Z,25707.00
2023-03-22T16:07:10.610Z,19501.00
2023-03-22T16:08:10.600Z,28660.00
2023-03-22T16:09:10.594Z,26176.00
2023-03-22T16:10:10.588Z,20669.00
2023-03-22T16:11:16.574Z,25462.00
2023-03-22T16:12:10.563Z,28598.00
2023-03-22T16:13:10.555Z,15910.00
2023-03-22T16:14:10.542Z,15890.00
2023-03-22T16:15:10.533Z,35287.00
2023-03-22T16:16:10.526Z,16594.00
2023-03-22T16:17:10.514Z,15969.00
2023-03-22T16:18:10.504Z,21980.00
2023-03-22T16:19:10.499Z,21628.00
2023-03-22T16:20:10.557Z,14584.00
2023-03-22T16:21:10.480Z,14511.00
2023-03-22T16:22:10.493Z,14384.00
2023-03-22T16:23:10.469Z,14851.00
2023-03-22T16:24:10.450Z,14218.00
2023-03-22T16:25:10.438Z,12494.00
2023-03-22T16:26:10.432Z,11610.00
2023-03-22T16:27:10.420Z,12860.00
2023-03-22T16:28:10.409Z,12920.00
2023-03-22T16:29:10.404Z,13137.00
2023-03-22T16:30:10.390Z,12071.00
2023-03-22T16:31:10.401Z,10378.00
2023-03-22T16:32:10.377Z,10850.00
2023-03-22T16:33:10.379Z,12892.00